sensor_id;sensor_type;location;lat;lon;timestamp;P1;durP1;ratioP1;P2;durP2;ratioP2
35462;SDS011;21578;47.892;9.970;2022-09-02T00:03:39;2.30;;;2.00;;
35462;SDS011;21578;47.892;9.970;2022-09-02T00:08:26;3.10;;;2.00;;
35462;SDS011;21578;47.892;9.970;2022-09-02T00:13:17;2.00;;;1.90;;
35462;SDS011;21578;47.892;9.970;2022-09-02T00:18:05;1.93;;;1.83;;
35462;SDS011;21578;47.892;9.970;2022-09-02T00:22:54;1.90;;;1.80;;
35462;SDS011;21578;47.892;9.970;2022-09-02T00:27:41;2.60;;;1.97;;
35462;SDS011;21578;47.892;9.970;2022-09-02T00:32:28;2.23;;;2.03;;
35462;SDS011;21578;47.892;9.970;2022-09-02T00:37:15;2.43;;;2.23;;
35462;SDS011;21578;47.892;9.970;2022-09-02T00:42:04;2.00;;;1.90;;
35462;SDS011;21578;47.892;9.970;2022-09-02T00:46:52;2.00;;;1.90;;
35462;SDS011;21578;47.892;9.970;2022-09-02T00:51:41;2.70;;;2.50;;
35462;SDS011;21578;47.892;9.970;2022-09-02T00:56:31;2.90;;;2.30;;
35462;SDS011;21578;47.892;9.970;2022-09-02T01:01:20;3.00;;;2.30;;
35462;SDS011;21578;47.892;9.970;2022-09-02T01:06:07;2.50;;;2.30;;
35462;SDS011;21578;47.892;9.970;2022-09-02T01:10:59;2.67;;;2.20;;
35462;SDS011;21578;47.892;9.970;2022-09-02T01:15:49;3.97;;;2.37;;
35462;SDS011;21578;47.892;9.970;2022-09-02T01:20:40;3.37;;;2.40;;
35462;SDS011;21578;47.892;9.970;2022-09-02T01:25:30;4.50;;;2.80;;
35462;SDS011;21578;47.892;9.970;2022-09-02T01:30:20;2.60;;;2.40;;
35462;SDS011;21578;47.892;9.970;2022-09-02T01:35:08;2.97;;;2.67;;
35462;SDS011;21578;47.892;9.970;2022-09-02T01:39:56;2.80;;;2.60;;
35462;SDS011;21578;47.892;9.970;2022-09-02T01:44:45;2.70;;;2.50;;
35462;SDS011;21578;47.892;9.970;2022-09-02T01:49:32;3.33;;;2.57;;
35462;SDS011;21578;47.892;9.970;2022-09-02T01:54:19;2.93;;;2.73;;
35462;SDS011;21578;47.892;9.970;2022-09-02T01:59:06;3.27;;;3.07;;
35462;SDS011;21578;47.892;9.970;2022-09-02T02:03:56;3.83;;;2.40;;
35462;SDS011;21578;47.892;9.970;2022-09-02T02:08:43;3.30;;;2.80;;
35462;SDS011;21578;47.892;9.970;2022-09-02T02:13:31;2.90;;;2.70;;
35462;SDS011;21578;47.892;9.970;2022-09-02T02:18:18;5.40;;;2.73;;
35462;SDS011;21578;47.892;9.970;2022-09-02T02:23:06;3.03;;;2.80;;
35462;SDS011;21578;47.892;9.970;2022-09-02T02:27:53;2.73;;;2.53;;
35462;SDS011;21578;47.892;9.970;2022-09-02T02:32:40;3.40;;;2.53;;
35462;SDS011;21578;47.892;9.970;2022-09-02T02:37:28;3.50;;;2.70;;
35462;SDS011;21578;47.892;9.970;2022-09-02T02:42:16;2.90;;;2.70;;
35462;SDS011;21578;47.892;9.970;2022-09-02T02:47:04;3.30;;;2.97;;
35462;SDS011;21578;47.892;9.970;2022-09-02T02:51:52;3.23;;;2.83;;
35462;SDS011;21578;47.892;9.970;2022-09-02T02:56:39;3.40;;;3.10;;
35462;SDS011;21578;47.892;9.970;2022-09-02T03:01:27;2.93;;;2.73;;
35462;SDS011;21578;47.892;9.970;2022-09-02T03:06:14;3.00;;;2.80;;
35462;SDS011;21578;47.892;9.970;2022-09-02T03:11:01;2.90;;;2.70;;
35462;SDS011;21578;47.892;9.970;2022-09-02T03:15:50;3.27;;;3.00;;
35462;SDS011;21578;47.892;9.970;2022-09-02T03:20:39;3.40;;;3.10;;
35462;SDS011;21578;47.892;9.970;2022-09-02T03:25:27;3.33;;;3.10;;
35462;SDS011;21578;47.892;9.970;2022-09-02T03:30:17;4.77;;;3.10;;
35462;SDS011;21578;47.892;9.970;2022-09-02T03:35:07;3.67;;;3.37;;
35462;SDS011;21578;47.892;9.970;2022-09-02T03:39:57;3.67;;;3.07;;
35462;SDS011;21578;47.892;9.970;2022-09-02T03:44:44;3.87;;;3.57;;
35462;SDS011;21578;47.892;9.970;2022-09-02T03:49:31;3.90;;;3.40;;
35462;SDS011;21578;47.892;9.970;2022-09-02T03:54:18;4.77;;;3.47;;
35462;SDS011;21578;47.892;9.970;2022-09-02T03:59:06;4.83;;;3.93;;
35462;SDS011;21578;47.892;9.970;2022-09-02T04:03:53;3.83;;;3.53;;
35462;SDS011;21578;47.892;9.970;2022-09-02T04:08:42;3.80;;;3.40;;
35462;SDS011;21578;47.892;9.970;2022-09-02T04:13:30;5.97;;;3.70;;
35462;SDS011;21578;47.892;9.970;2022-09-02T04:18:18;4.43;;;4.13;;
35462;SDS011;21578;47.892;9.970;2022-09-02T04:23:05;4.07;;;3.77;;
35462;SDS011;21578;47.892;9.970;2022-09-02T04:27:52;4.40;;;4.00;;
35462;SDS011;21578;47.892;9.970;2022-09-02T04:32:42;3.90;;;3.60;;
35462;SDS011;21578;47.892;9.970;2022-09-02T04:37:30;5.33;;;4.37;;
35462;SDS011;21578;47.892;9.970;2022-09-02T04:42:18;5.13;;;4.13;;
35462;SDS011;21578;47.892;9.970;2022-09-02T04:47:05;4.57;;;4.07;;
35462;SDS011;21578;47.892;9.970;2022-09-02T04:51:52;6.43;;;4.47;;
35462;SDS011;21578;47.892;9.970;2022-09-02T04:56:40;4.53;;;4.10;;
35462;SDS011;21578;47.892;9.970;2022-09-02T05:01:29;4.53;;;4.13;;
35462;SDS011;21578;47.892;9.970;2022-09-02T05:06:18;4.90;;;4.50;;
35462;SDS011;21578;47.892;9.970;2022-09-02T05:11:07;4.47;;;4.17;;
35462;SDS011;21578;47.892;9.970;2022-09-02T05:15:56;4.87;;;4.40;;
35462;SDS011;21578;47.892;9.970;2022-09-02T05:20:43;5.90;;;4.47;;
35462;SDS011;21578;47.892;9.970;2022-09-02T05:25:30;4.80;;;4.43;;
35462;SDS011;21578;47.892;9.970;2022-09-02T05:30:17;4.40;;;4.00;;
35462;SDS011;21578;47.892;9.970;2022-09-02T05:35:05;5.00;;;4.60;;
35462;SDS011;21578;47.892;9.970;2022-09-02T05:39:53;6.60;;;5.00;;
35462;SDS011;21578;47.892;9.970;2022-09-02T05:44:40;4.93;;;4.53;;
35462;SDS011;21578;47.892;9.970;2022-09-02T05:49:29;5.43;;;4.93;;
35462;SDS011;21578;47.892;9.970;2022-09-02T05:54:18;5.87;;;5.37;;
35462;SDS011;21578;47.892;9.970;2022-09-02T05:59:07;5.73;;;5.23;;
35462;SDS011;21578;47.892;9.970;2022-09-02T06:03:54;5.53;;;5.13;;
35462;SDS011;21578;47.892;9.970;2022-09-02T06:08:41;6.33;;;5.40;;
35462;SDS011;21578;47.892;9.970;2022-09-02T06:13:30;5.50;;;5.00;;
35462;SDS011;21578;47.892;9.970;2022-09-02T06:18:19;5.87;;;5.30;;
35462;SDS011;21578;47.892;9.970;2022-09-02T06:23:07;5.37;;;4.97;;
35462;SDS011;21578;47.892;9.970;2022-09-02T06:27:54;7.63;;;6.10;;
35462;SDS011;21578;47.892;9.970;2022-09-02T06:32:42;7.03;;;5.53;;
35462;SDS011;21578;47.892;9.970;2022-09-02T06:37:29;5.80;;;5.33;;
35462;SDS011;21578;47.892;9.970;2022-09-02T06:42:16;6.00;;;5.30;;
35462;SDS011;21578;47.892;9.970;2022-09-02T06:47:03;5.97;;;5.43;;
35462;SDS011;21578;47.892;9.970;2022-09-02T06:51:51;6.17;;;5.57;;
35462;SDS011;21578;47.892;9.970;2022-09-02T06:56:40;6.13;;;5.63;;
35462;SDS011;21578;47.892;9.970;2022-09-02T07:01:29;5.40;;;5.00;;
35462;SDS011;21578;47.892;9.970;2022-09-02T07:06:17;5.50;;;5.10;;
35462;SDS011;21578;47.892;9.970;2022-09-02T07:11:06;5.67;;;5.27;;
35462;SDS011;21578;47.892;9.970;2022-09-02T07:16:00;5.47;;;5.03;;
35462;SDS011;21578;47.892;9.970;2022-09-02T07:20:47;5.87;;;5.40;;
35462;SDS011;21578;47.892;9.970;2022-09-02T07:25:36;5.67;;;5.07;;
35462;SDS011;21578;47.892;9.970;2022-09-02T07:30:26;6.93;;;6.07;;
35462;SDS011;21578;47.892;9.970;2022-09-02T07:35:15;5.70;;;5.20;;
35462;SDS011;21578;47.892;9.970;2022-09-02T07:40:02;5.73;;;5.23;;
35462;SDS011;21578;47.892;9.970;2022-09-02T07:44:50;4.93;;;4.53;;
35462;SDS011;21578;47.892;9.970;2022-09-02T07:49:38;5.53;;;5.03;;
35462;SDS011;21578;47.892;9.970;2022-09-02T07:54:25;5.20;;;4.80;;
35462;SDS011;21578;47.892;9.970;2022-09-02T07:59:12;5.50;;;5.00;;
35462;SDS011;21578;47.892;9.970;2022-09-02T08:03:59;5.77;;;5.27;;
35462;SDS011;21578;47.892;9.970;2022-09-02T08:08:48;5.93;;;5.53;;
35462;SDS011;21578;47.892;9.970;2022-09-02T08:13:35;5.50;;;5.10;;
35462;SDS011;21578;47.892;9.970;2022-09-02T08:18:22;5.40;;;4.90;;
35462;SDS011;21578;47.892;9.970;2022-09-02T08:23:09;4.57;;;4.27;;
35462;SDS011;21578;47.892;9.970;2022-09-02T08:27:58;4.47;;;4.07;;
35462;SDS011;21578;47.892;9.970;2022-09-02T08:32:45;5.00;;;4.60;;
35462;SDS011;21578;47.892;9.970;2022-09-02T08:37:32;5.17;;;4.43;;
35462;SDS011;21578;47.892;9.970;2022-09-02T08:42:20;4.37;;;4.07;;
35462;SDS011;21578;47.892;9.970;2022-09-02T08:47:11;4.90;;;4.50;;
35462;SDS011;21578;47.892;9.970;2022-09-02T08:52:02;4.67;;;4.27;;
35462;SDS011;21578;47.892;9.970;2022-09-02T08:56:50;4.70;;;4.30;;
35462;SDS011;21578;47.892;9.970;2022-09-02T09:01:40;4.87;;;4.57;;
35462;SDS011;21578;47.892;9.970;2022-09-02T09:06:35;4.20;;;3.90;;
35462;SDS011;21578;47.892;9.970;2022-09-02T09:11:32;5.40;;;4.90;;
35462;SDS011;21578;47.892;9.970;2022-09-02T09:16:29;6.53;;;3.90;;
35462;SDS011;21578;47.892;9.970;2022-09-02T09:21:23;3.50;;;3.20;;
35462;SDS011;21578;47.892;9.970;2022-09-02T09:26:12;3.47;;;3.27;;
35462;SDS011;21578;47.892;9.970;2022-09-02T09:31:04;3.10;;;2.90;;
35462;SDS011;21578;47.892;9.970;2022-09-02T09:35:51;4.00;;;3.70;;
35462;SDS011;21578;47.892;9.970;2022-09-02T09:40:40;3.93;;;3.17;;
35462;SDS011;21578;47.892;9.970;2022-09-02T09:45:30;3.57;;;3.13;;
35462;SDS011;21578;47.892;9.970;2022-09-02T09:50:18;3.33;;;3.10;;
35462;SDS011;21578;47.892;9.970;2022-09-02T09:55:10;3.33;;;3.03;;
35462;SDS011;21578;47.892;9.970;2022-09-02T09:59:58;3.40;;;2.60;;
35462;SDS011;21578;47.892;9.970;2022-09-02T10:04:49;2.30;;;2.10;;
35462;SDS011;21578;47.892;9.970;2022-09-02T10:09:37;4.40;;;2.60;;
35462;SDS011;21578;47.892;9.970;2022-09-02T10:14:24;3.23;;;2.67;;
35462;SDS011;21578;47.892;9.970;2022-09-02T10:19:16;2.83;;;2.70;;
35462;SDS011;21578;47.892;9.970;2022-09-02T10:24:16;3.10;;;2.90;;
35462;SDS011;21578;47.892;9.970;2022-09-02T10:29:24;3.33;;;3.13;;
35462;SDS011;21578;47.892;9.970;2022-09-02T10:34:28;3.07;;;2.87;;
35462;SDS011;21578;47.892;9.970;2022-09-02T10:39:21;3.93;;;3.27;;
35462;SDS011;21578;47.892;9.970;2022-09-02T10:44:28;3.73;;;3.43;;
35462;SDS011;21578;47.892;9.970;2022-09-02T10:49:20;4.00;;;3.57;;
35462;SDS011;21578;47.892;9.970;2022-09-02T10:54:22;3.33;;;3.13;;
35462;SDS011;21578;47.892;9.970;2022-09-02T10:59:23;4.20;;;3.23;;
35462;SDS011;21578;47.892;9.970;2022-09-02T11:04:16;4.03;;;3.70;;
35462;SDS011;21578;47.892;9.970;2022-09-02T11:09:08;3.40;;;3.10;;
35462;SDS011;21578;47.892;9.970;2022-09-02T11:14:01;3.43;;;3.17;;
35462;SDS011;21578;47.892;9.970;2022-09-02T11:19:00;3.27;;;3.07;;
35462;SDS011;21578;47.892;9.970;2022-09-02T11:23:52;3.70;;;3.40;;
35462;SDS011;21578;47.892;9.970;2022-09-02T11:28:46;3.40;;;3.10;;
35462;SDS011;21578;47.892;9.970;2022-09-02T11:33:44;3.60;;;2.90;;
35462;SDS011;21578;47.892;9.970;2022-09-02T11:38:38;3.30;;;2.73;;
35462;SDS011;21578;47.892;9.970;2022-09-02T11:43:30;5.50;;;3.07;;
35462;SDS011;21578;47.892;9.970;2022-09-02T11:53:45;4.30;;;4.00;;
35462;SDS011;21578;47.892;9.970;2022-09-02T11:58:34;3.63;;;2.90;;
35462;SDS011;21578;47.892;9.970;2022-09-02T12:03:23;3.03;;;2.83;;
35462;SDS011;21578;47.892;9.970;2022-09-02T12:13:43;2.80;;;2.57;;
35462;SDS011;21578;47.892;9.970;2022-09-02T12:18:33;1.90;;;1.80;;
35462;SDS011;21578;47.892;9.970;2022-09-02T12:28:48;2.27;;;2.17;;
35462;SDS011;21578;47.892;9.970;2022-09-02T12:33:37;2.20;;;2.07;;
35462;SDS011;21578;47.892;9.970;2022-09-02T12:38:29;2.47;;;2.37;;
35462;SDS011;21578;47.892;9.970;2022-09-02T12:43:18;2.63;;;2.50;;
35462;SDS011;21578;47.892;9.970;2022-09-02T12:48:14;2.67;;;2.50;;
35462;SDS011;21578;47.892;9.970;2022-09-02T12:53:12;2.00;;;1.90;;
35462;SDS011;21578;47.892;9.970;2022-09-02T12:58:11;2.10;;;1.90;;
35462;SDS011;21578;47.892;9.970;2022-09-02T13:03:02;2.10;;;2.00;;
35462;SDS011;21578;47.892;9.970;2022-09-02T13:13:34;5.33;;;2.10;;
35462;SDS011;21578;47.892;9.970;2022-09-02T13:19:07;2.20;;;2.10;;
35462;SDS011;21578;47.892;9.970;2022-09-02T13:24:28;2.80;;;1.73;;
35462;SDS011;21578;47.892;9.970;2022-09-02T13:34:53;2.47;;;1.73;;
35462;SDS011;21578;47.892;9.970;2022-09-02T13:39:43;2.10;;;1.90;;
35462;SDS011;21578;47.892;9.970;2022-09-02T13:44:29;2.67;;;2.20;;
35462;SDS011;21578;47.892;9.970;2022-09-02T13:49:20;2.10;;;1.90;;
35462;SDS011;21578;47.892;9.970;2022-09-02T13:54:10;1.70;;;1.60;;
35462;SDS011;21578;47.892;9.970;2022-09-02T13:58:57;2.33;;;2.17;;
35462;SDS011;21578;47.892;9.970;2022-09-02T14:03:44;1.60;;;1.50;;
35462;SDS011;21578;47.892;9.970;2022-09-02T14:08:35;2.37;;;2.27;;
35462;SDS011;21578;47.892;9.970;2022-09-02T14:13:23;2.13;;;2.03;;
35462;SDS011;21578;47.892;9.970;2022-09-02T14:18:12;2.20;;;1.63;;
35462;SDS011;21578;47.892;9.970;2022-09-02T14:23:00;3.10;;;2.50;;
35462;SDS011;21578;47.892;9.970;2022-09-02T14:27:47;3.27;;;2.00;;
35462;SDS011;21578;47.892;9.970;2022-09-02T14:32:37;2.00;;;1.90;;
35462;SDS011;21578;47.892;9.970;2022-09-02T14:37:24;2.50;;;2.30;;
35462;SDS011;21578;47.892;9.970;2022-09-02T14:42:12;1.87;;;1.77;;
35462;SDS011;21578;47.892;9.970;2022-09-02T14:47:02;2.00;;;1.80;;
35462;SDS011;21578;47.892;9.970;2022-09-02T14:51:52;3.23;;;1.90;;
35462;SDS011;21578;47.892;9.970;2022-09-02T14:56:44;2.10;;;1.90;;
35462;SDS011;21578;47.892;9.970;2022-09-02T15:01:36;2.50;;;2.30;;
35462;SDS011;21578;47.892;9.970;2022-09-02T15:06:23;3.13;;;2.30;;
35462;SDS011;21578;47.892;9.970;2022-09-02T15:11:11;2.27;;;2.10;;
35462;SDS011;21578;47.892;9.970;2022-09-02T15:16:02;2.50;;;2.40;;
35462;SDS011;21578;47.892;9.970;2022-09-02T15:20:49;2.30;;;2.10;;
35462;SDS011;21578;47.892;9.970;2022-09-02T15:25:36;2.50;;;2.30;;
35462;SDS011;21578;47.892;9.970;2022-09-02T15:30:25;2.67;;;2.43;;
35462;SDS011;21578;47.892;9.970;2022-09-02T15:35:11;2.13;;;1.93;;
35462;SDS011;21578;47.892;9.970;2022-09-02T15:39:58;2.50;;;2.03;;
35462;SDS011;21578;47.892;9.970;2022-09-02T15:44:45;2.17;;;2.07;;
35462;SDS011;21578;47.892;9.970;2022-09-02T15:49:34;1.77;;;1.67;;
35462;SDS011;21578;47.892;9.970;2022-09-02T15:54:21;2.90;;;1.90;;
35462;SDS011;21578;47.892;9.970;2022-09-02T15:59:10;1.93;;;1.83;;
35462;SDS011;21578;47.892;9.970;2022-09-02T16:03:58;1.93;;;1.80;;
35462;SDS011;21578;47.892;9.970;2022-09-02T16:08:48;2.80;;;1.93;;
35462;SDS011;21578;47.892;9.970;2022-09-02T16:13:35;1.90;;;1.70;;
35462;SDS011;21578;47.892;9.970;2022-09-02T16:18:22;1.83;;;1.53;;
35462;SDS011;21578;47.892;9.970;2022-09-02T16:23:09;1.80;;;1.70;;
35462;SDS011;21578;47.892;9.970;2022-09-02T16:27:57;3.40;;;1.60;;
35462;SDS011;21578;47.892;9.970;2022-09-02T16:32:45;1.80;;;1.70;;
35462;SDS011;21578;47.892;9.970;2022-09-02T16:37:34;3.00;;;1.80;;
35462;SDS011;21578;47.892;9.970;2022-09-02T16:42:21;2.43;;;2.13;;
35462;SDS011;21578;47.892;9.970;2022-09-02T16:47:09;1.90;;;1.80;;
35462;SDS011;21578;47.892;9.970;2022-09-02T16:51:56;1.80;;;1.63;;
35462;SDS011;21578;47.892;9.970;2022-09-02T16:56:43;2.10;;;2.00;;
35462;SDS011;21578;47.892;9.970;2022-09-02T17:01:30;2.50;;;1.80;;
35462;SDS011;21578;47.892;9.970;2022-09-02T17:06:19;1.80;;;1.70;;
35462;SDS011;21578;47.892;9.970;2022-09-02T17:11:14;2.43;;;1.70;;
35462;SDS011;21578;47.892;9.970;2022-09-02T17:16:04;3.20;;;2.27;;
35462;SDS011;21578;47.892;9.970;2022-09-02T17:21:01;1.90;;;1.80;;
35462;SDS011;21578;47.892;9.970;2022-09-02T17:25:58;2.17;;;2.07;;
35462;SDS011;21578;47.892;9.970;2022-09-02T17:30:46;1.90;;;1.80;;
35462;SDS011;21578;47.892;9.970;2022-09-02T17:35:33;3.73;;;2.57;;
35462;SDS011;21578;47.892;9.970;2022-09-02T17:40:20;1.80;;;1.70;;
35462;SDS011;21578;47.892;9.970;2022-09-02T17:45:26;3.37;;;1.93;;
35462;SDS011;21578;47.892;9.970;2022-09-02T17:50:12;2.47;;;2.30;;
35462;SDS011;21578;47.892;9.970;2022-09-02T17:54:59;3.67;;;2.80;;
35462;SDS011;21578;47.892;9.970;2022-09-02T17:59:51;2.60;;;2.50;;
35462;SDS011;21578;47.892;9.970;2022-09-02T18:04:57;3.13;;;2.93;;
35462;SDS011;21578;47.892;9.970;2022-09-02T18:09:48;2.40;;;2.30;;
35462;SDS011;21578;47.892;9.970;2022-09-02T18:14:39;2.03;;;1.93;;
35462;SDS011;21578;47.892;9.970;2022-09-02T18:19:42;1.70;;;1.60;;
35462;SDS011;21578;47.892;9.970;2022-09-02T18:24:45;2.37;;;1.70;;
35462;SDS011;21578;47.892;9.970;2022-09-02T18:29:43;4.27;;;2.90;;
35462;SDS011;21578;47.892;9.970;2022-09-02T18:34:42;19.97;;;16.83;;
35462;SDS011;21578;47.892;9.970;2022-09-02T18:39:55;6.30;;;5.53;;
35462;SDS011;21578;47.892;9.970;2022-09-02T18:44:55;2.10;;;2.00;;
35462;SDS011;21578;47.892;9.970;2022-09-02T18:49:52;1.90;;;1.80;;
35462;SDS011;21578;47.892;9.970;2022-09-02T18:54:42;2.70;;;1.67;;
35462;SDS011;21578;47.892;9.970;2022-09-02T18:59:33;4.27;;;2.57;;
35462;SDS011;21578;47.892;9.970;2022-09-02T19:04:35;1.43;;;1.33;;
35462;SDS011;21578;47.892;9.970;2022-09-02T19:09:22;1.87;;;1.30;;
35462;SDS011;21578;47.892;9.970;2022-09-02T19:14:16;1.20;;;1.20;;
35462;SDS011;21578;47.892;9.970;2022-09-02T19:19:11;1.30;;;1.17;;
35462;SDS011;21578;47.892;9.970;2022-09-02T19:24:00;1.87;;;1.20;;
35462;SDS011;21578;47.892;9.970;2022-09-02T19:28:49;1.10;;;1.00;;
35462;SDS011;21578;47.892;9.970;2022-09-02T19:33:37;1.20;;;1.07;;
35462;SDS011;21578;47.892;9.970;2022-09-02T19:38:25;1.53;;;1.30;;
35462;SDS011;21578;47.892;9.970;2022-09-02T19:43:12;1.47;;;1.20;;
35462;SDS011;21578;47.892;9.970;2022-09-02T19:48:00;0.90;;;0.90;;
35462;SDS011;21578;47.892;9.970;2022-09-02T19:52:48;1.37;;;1.27;;
35462;SDS011;21578;47.892;9.970;2022-09-02T19:57:36;1.23;;;1.13;;
35462;SDS011;21578;47.892;9.970;2022-09-02T20:02:23;1.50;;;1.40;;
35462;SDS011;21578;47.892;9.970;2022-09-02T20:07:10;4.17;;;1.80;;
35462;SDS011;21578;47.892;9.970;2022-09-02T20:11:57;3.03;;;1.80;;
35462;SDS011;21578;47.892;9.970;2022-09-02T20:16:45;2.43;;;2.23;;
35462;SDS011;21578;47.892;9.970;2022-09-02T20:21:40;2.33;;;2.10;;
35462;SDS011;21578;47.892;9.970;2022-09-02T20:26:32;2.60;;;1.93;;
35462;SDS011;21578;47.892;9.970;2022-09-02T20:31:29;2.40;;;1.90;;
35462;SDS011;21578;47.892;9.970;2022-09-02T20:36:31;1.80;;;1.70;;
35462;SDS011;21578;47.892;9.970;2022-09-02T20:41:26;2.00;;;1.90;;
35462;SDS011;21578;47.892;9.970;2022-09-02T20:46:21;2.17;;;1.90;;
35462;SDS011;21578;47.892;9.970;2022-09-02T20:51:20;2.57;;;1.87;;
35462;SDS011;21578;47.892;9.970;2022-09-02T20:56:16;2.57;;;2.00;;
35462;SDS011;21578;47.892;9.970;2022-09-02T21:01:08;4.77;;;1.80;;
35462;SDS011;21578;47.892;9.970;2022-09-02T21:06:02;1.60;;;1.60;;
35462;SDS011;21578;47.892;9.970;2022-09-02T21:10:50;2.43;;;2.00;;
35462;SDS011;21578;47.892;9.970;2022-09-02T21:15:42;2.30;;;2.10;;
35462;SDS011;21578;47.892;9.970;2022-09-02T21:20:36;2.30;;;2.10;;
35462;SDS011;21578;47.892;9.970;2022-09-02T21:25:28;2.40;;;2.30;;
35462;SDS011;21578;47.892;9.970;2022-09-02T21:30:23;2.37;;;2.10;;
35462;SDS011;21578;47.892;9.970;2022-09-02T21:35:14;2.20;;;2.10;;
35462;SDS011;21578;47.892;9.970;2022-09-02T21:40:05;4.17;;;3.07;;
35462;SDS011;21578;47.892;9.970;2022-09-02T21:44:59;2.73;;;2.17;;
35462;SDS011;21578;47.892;9.970;2022-09-02T21:50:04;3.83;;;2.43;;
35462;SDS011;21578;47.892;9.970;2022-09-02T21:54:58;3.97;;;2.77;;
35462;SDS011;21578;47.892;9.970;2022-09-02T21:59:57;3.27;;;3.00;;
35462;SDS011;21578;47.892;9.970;2022-09-02T22:04:51;3.40;;;3.10;;
35462;SDS011;21578;47.892;9.970;2022-09-02T22:09:43;4.53;;;4.00;;
35462;SDS011;21578;47.892;9.970;2022-09-02T22:14:37;5.20;;;4.80;;
35462;SDS011;21578;47.892;9.970;2022-09-02T22:19:30;5.03;;;4.63;;
35462;SDS011;21578;47.892;9.970;2022-09-02T22:24:22;4.93;;;4.53;;
35462;SDS011;21578;47.892;9.970;2022-09-02T22:29:14;5.20;;;4.80;;
35462;SDS011;21578;47.892;9.970;2022-09-02T22:34:06;4.90;;;4.47;;
35462;SDS011;21578;47.892;9.970;2022-09-02T22:38:54;4.77;;;4.40;;
35462;SDS011;21578;47.892;9.970;2022-09-02T22:43:47;4.70;;;4.30;;
35462;SDS011;21578;47.892;9.970;2022-09-02T22:48:38;4.43;;;4.03;;
35462;SDS011;21578;47.892;9.970;2022-09-02T22:53:49;4.23;;;3.70;;
35462;SDS011;21578;47.892;9.970;2022-09-02T22:58:44;3.70;;;3.40;;
35462;SDS011;21578;47.892;9.970;2022-09-02T23:03:50;3.60;;;3.30;;
35462;SDS011;21578;47.892;9.970;2022-09-02T23:08:46;3.00;;;2.80;;
35462;SDS011;21578;47.892;9.970;2022-09-02T23:13:38;3.00;;;2.80;;
35462;SDS011;21578;47.892;9.970;2022-09-02T23:18:39;2.90;;;2.67;;
35462;SDS011;21578;47.892;9.970;2022-09-02T23:23:37;2.90;;;2.10;;
35462;SDS011;21578;47.892;9.970;2022-09-02T23:28:35;3.00;;;2.20;;
35462;SDS011;21578;47.892;9.970;2022-09-02T23:33:33;2.43;;;1.97;;
35462;SDS011;21578;47.892;9.970;2022-09-02T23:38:40;2.17;;;2.07;;
35462;SDS011;21578;47.892;9.970;2022-09-02T23:43:42;3.57;;;2.07;;
35462;SDS011;21578;47.892;9.970;2022-09-02T23:48:32;2.33;;;2.13;;
35462;SDS011;21578;47.892;9.970;2022-09-02T23:53:27;1.80;;;1.70;;
35462;SDS011;21578;47.892;9.970;2022-09-02T23:58:22;2.50;;;1.90;;
